createdAt,value
2019-05-05T00:00:32.424Z,4.34
2019-05-05T00:01:34.368Z,4.35
2019-05-05T00:02:34.252Z,4.35
2019-05-05T00:03:34.279Z,4.36
2019-05-05T00:04:32.399Z,4.26
2019-05-05T00:05:32.397Z,4.25
2019-05-05T00:06:34.125Z,4.29
2019-05-05T00:07:34.615Z,4.25
2019-05-05T00:08:32.350Z,4.17
2019-05-05T00:09:34.533Z,4.31
2019-05-05T00:10:34.646Z,4.24
2019-05-05T00:11:32.320Z,4.25
2019-05-05T00:12:34.251Z,4.25
2019-05-05T00:13:32.316Z,4.25
2019-05-05T00:14:32.299Z,4.24
2019-05-05T00:15:34.391Z,4.24
2019-05-05T00:16:32.290Z,4.25
2019-05-05T00:17:34.169Z,4.24
2019-05-05T00:18:34.539Z,4.20
2019-05-05T00:19:33.344Z,4.18
2019-05-05T00:20:34.288Z,4.10
2019-05-05T00:21:34.241Z,4.06
2019-05-05T00:22:32.197Z,4.13
2019-05-05T00:23:34.403Z,4.16
2019-05-05T00:24:32.197Z,4.11
2019-05-05T00:25:34.187Z,4.11
2019-05-05T00:26:32.155Z,4.13
2019-05-05T00:27:32.174Z,4.14
2019-05-05T00:28:32.139Z,4.02
2019-05-05T00:29:32.138Z,4.14
2019-05-05T00:30:34.155Z,4.14
2019-05-05T00:31:32.106Z,4.10
2019-05-05T00:32:32.141Z,4.13
2019-05-05T00:33:34.227Z,4.08
2019-05-05T00:34:32.085Z,4.06
2019-05-05T00:35:32.064Z,4.06
2019-05-05T00:36:32.081Z,4.00
2019-05-05T00:37:32.040Z,4.04
2019-05-05T00:38:32.071Z,4.07
2019-05-05T00:39:32.030Z,4.06
2019-05-05T00:40:32.034Z,4.07
2019-05-05T00:41:31.995Z,4.06
2019-05-05T00:42:31.997Z,4.04
2019-05-05T00:43:31.977Z,4.08
2019-05-05T00:44:32.018Z,3.99
2019-05-05T00:45:31.956Z,3.93
2019-05-05T00:46:31.989Z,3.96
2019-05-05T00:47:31.956Z,3.88
2019-05-05T00:48:31.927Z,3.90
2019-05-05T00:49:45.603Z,3.89
2019-05-05T00:50:34.336Z,3.93
2019-05-05T00:51:31.897Z,3.93
2019-05-05T00:52:31.876Z,3.90
2019-05-05T00:53:31.872Z,3.86
2019-05-05T00:54:31.875Z,3.84
2019-05-05T00:55:31.873Z,3.89
2019-05-05T00:56:31.853Z,3.93
2019-05-05T00:57:31.825Z,3.89
2019-05-05T00:58:31.818Z,3.84
2019-05-05T00:59:31.816Z,3.86
2019-05-05T01:00:31.811Z,3.88
2019-05-05T01:01:31.807Z,3.84
2019-05-05T01:02:31.787Z,3.80
2019-05-05T01:03:31.772Z,3.84
2019-05-05T01:04:31.807Z,3.88
2019-05-05T01:05:31.764Z,3.90
2019-05-05T01:06:31.755Z,3.86
2019-05-05T01:07:31.743Z,3.86
2019-05-05T01:08:31.729Z,3.90
2019-05-05T01:09:31.714Z,3.93
2019-05-05T01:10:31.725Z,3.95
2019-05-05T01:11:31.754Z,3.93
2019-05-05T01:12:31.707Z,3.80
2019-05-05T01:13:31.673Z,3.84
2019-05-05T01:14:31.659Z,3.86
2019-05-05T01:15:31.685Z,3.93
2019-05-05T01:16:31.653Z,3.99
2019-05-05T01:17:31.629Z,3.92
2019-05-05T01:18:31.625Z,3.82
2019-05-05T01:19:31.601Z,3.89
2019-05-05T01:20:31.600Z,3.95
2019-05-05T01:21:31.577Z,3.90
2019-05-05T01:22:31.567Z,3.93
2019-05-05T01:23:31.594Z,3.80
2019-05-05T01:24:31.557Z,3.90
2019-05-05T01:25:31.548Z,3.89
2019-05-05T01:26:31.532Z,3.96
2019-05-05T01:27:31.511Z,3.86
2019-05-05T01:28:31.531Z,3.89
2019-05-05T01:29:31.515Z,3.90
2019-05-05T01:30:31.523Z,3.90
2019-05-05T01:31:31.501Z,3.89
2019-05-05T01:32:31.475Z,3.89
2019-05-05T01:33:31.470Z,3.90
2019-05-05T01:34:31.456Z,3.92
2019-05-05T01:35:31.449Z,3.80
2019-05-05T01:36:31.417Z,3.88
2019-05-05T01:37:31.445Z,3.93
2019-05-05T01:38:31.413Z,3.90
2019-05-05T01:39:31.398Z,3.78
2019-05-05T01:40:31.407Z,3.84
2019-05-05T01:41:31.375Z,3.77
2019-05-05T01:42:31.418Z,3.82
2019-05-05T01:43:31.380Z,3.80
2019-05-05T01:44:31.343Z,3.82
2019-05-05T01:45:31.402Z,3.81
2019-05-05T01:46:31.322Z,3.82
2019-05-05T01:47:31.301Z,3.80
2019-05-05T01:48:31.303Z,3.74
2019-05-05T01:49:31.287Z,3.75
2019-05-05T01:50:31.285Z,3.75
2019-05-05T01:51:31.283Z,3.72
2019-05-05T01:52:31.267Z,3.75
2019-05-05T01:53:31.256Z,3.75
2019-05-05T01:54:31.239Z,3.71
2019-05-05T01:55:31.286Z,3.71
2019-05-05T01:56:31.210Z,3.78
2019-05-05T01:57:31.212Z,3.81
2019-05-05T01:58:31.215Z,3.75
2019-05-05T01:59:31.196Z,3.77
2019-05-05T02:00:31.193Z,3.77
2019-05-05T02:01:31.181Z,3.81
2019-05-05T02:02:31.161Z,3.68
2019-05-05T02:03:31.137Z,3.74
2019-05-05T02:04:31.143Z,3.70
2019-05-05T02:05:31.158Z,3.72
2019-05-05T02:06:31.119Z,3.72
2019-05-05T02:07:31.094Z,3.71
2019-05-05T02:08:31.111Z,3.72
2019-05-05T02:09:31.082Z,3.70
2019-05-05T02:10:31.091Z,3.78
2019-05-05T02:11:31.071Z,3.67
2019-05-05T02:12:31.050Z,3.64
2019-05-05T02:13:31.043Z,3.63
2019-05-05T02:14:31.025Z,3.67
2019-05-05T02:15:31.031Z,3.68
2019-05-05T02:16:31.004Z,3.62
2019-05-05T02:17:31.006Z,3.67
2019-05-05T02:18:31.019Z,3.60
2019-05-05T02:19:31.011Z,3.57
2019-05-05T02:20:31.360Z,3.75
2019-05-05T02:21:30.983Z,3.57
2019-05-05T02:22:30.959Z,3.64
2019-05-05T02:23:30.956Z,3.68
2019-05-05T02:24:30.972Z,3.70
2019-05-05T02:25:30.919Z,3.71
2019-05-05T02:26:30.922Z,3.72
2019-05-05T02:27:30.887Z,3.70
2019-05-05T02:28:30.885Z,3.64
2019-05-05T02:29:30.866Z,3.67
2019-05-05T02:30:30.877Z,3.62
2019-05-05T02:31:30.865Z,3.67
2019-05-05T02:32:30.838Z,3.71
2019-05-05T02:33:30.850Z,3.71
2019-05-05T02:34:30.837Z,3.74
2019-05-05T02:35:30.820Z,3.68
2019-05-05T02:36:30.822Z,3.71
2019-05-05T02:37:30.804Z,3.75
2019-05-05T02:38:30.783Z,3.60
2019-05-05T02:39:30.773Z,3.77
2019-05-05T02:40:30.765Z,3.70
2019-05-05T02:41:30.795Z,3.62
2019-05-05T02:42:30.755Z,3.68
2019-05-05T02:43:30.737Z,3.67
2019-05-05T02:44:30.730Z,3.75
2019-05-05T02:45:30.705Z,3.70
2019-05-05T02:46:30.730Z,3.75
2019-05-05T02:47:30.722Z,3.68
2019-05-05T02:48:30.698Z,3.70
2019-05-05T02:49:30.671Z,3.62
2019-05-05T02:50:48.218Z,3.59
2019-05-05T02:51:31.667Z,3.72
2019-05-05T02:52:30.656Z,3.54
2019-05-05T02:53:30.639Z,3.60
2019-05-05T02:54:30.630Z,3.71
2019-05-05T02:55:32.188Z,3.71
2019-05-05T02:56:30.610Z,3.71
2019-05-05T02:57:30.593Z,3.71
2019-05-05T02:58:30.567Z,3.70
2019-05-05T02:59:30.564Z,3.71
2019-05-05T03:00:30.588Z,3.68
2019-05-05T03:01:30.550Z,3.72
2019-05-05T03:02:30.522Z,3.72
2019-05-05T03:03:30.515Z,3.81
2019-05-05T03:04:30.557Z,3.77
2019-05-05T03:05:30.489Z,3.70
2019-05-05T03:06:30.522Z,3.78
2019-05-05T03:07:30.484Z,3.77
2019-05-05T03:08:30.460Z,3.71
2019-05-05T03:09:30.450Z,3.75
2019-05-05T03:10:30.448Z,3.78
2019-05-05T03:11:30.440Z,3.72
2019-05-05T03:12:30.472Z,3.78
2019-05-05T03:13:30.417Z,3.84
2019-05-05T03:14:30.433Z,3.82
2019-05-05T03:15:30.404Z,3.89
2019-05-05T03:16:30.393Z,3.82
2019-05-05T03:17:30.419Z,3.84
2019-05-05T03:18:30.356Z,3.89
2019-05-05T03:19:30.372Z,3.89
2019-05-05T03:20:30.367Z,3.88
2019-05-05T03:21:30.338Z,3.88
2019-05-05T03:22:30.336Z,3.81
2019-05-05T03:23:30.349Z,3.89
2019-05-05T03:24:30.304Z,3.84
2019-05-05T03:25:30.301Z,3.86
2019-05-05T03:26:30.295Z,3.84
2019-05-05T03:27:30.335Z,3.88
2019-05-05T03:28:30.275Z,3.81
2019-05-05T03:29:30.265Z,3.86
2019-05-05T03:30:30.232Z,3.84
2019-05-05T03:31:30.238Z,3.84
2019-05-05T03:32:30.222Z,3.84
2019-05-05T03:33:30.221Z,3.86
2019-05-05T03:34:30.259Z,3.93
2019-05-05T03:35:30.187Z,3.95
2019-05-05T03:36:30.241Z,3.88
2019-05-05T03:37:30.212Z,3.89
2019-05-05T03:38:30.173Z,3.86
2019-05-05T03:39:30.149Z,3.88
2019-05-05T03:40:30.128Z,3.90
2019-05-05T03:41:30.130Z,3.90
2019-05-05T03:42:30.131Z,3.88
2019-05-05T03:43:30.105Z,3.90
2019-05-05T03:44:30.092Z,3.93
2019-05-05T03:45:30.103Z,3.90
2019-05-05T03:46:30.094Z,3.88
2019-05-05T03:47:30.079Z,3.90
2019-05-05T03:48:30.041Z,3.90
2019-05-05T03:49:30.039Z,3.88
2019-05-05T03:50:30.033Z,3.89
2019-05-05T03:51:30.068Z,3.93
2019-05-05T03:52:30.072Z,3.89
2019-05-05T03:53:30.009Z,3.88
2019-05-05T03:54:29.979Z,3.89
2019-05-05T03:55:29.975Z,3.84
2019-05-05T03:56:29.975Z,3.90
2019-05-05T03:57:29.983Z,3.90
2019-05-05T03:58:29.948Z,3.93
2019-05-05T03:59:29.941Z,3.93
2019-05-05T04:00:29.940Z,3.99
2019-05-05T04:01:29.939Z,3.95
2019-05-05T04:02:29.923Z,4.07
2019-05-05T04:03:29.895Z,3.99
2019-05-05T04:04:29.925Z,4.06
2019-05-05T04:05:29.902Z,4.06
2019-05-05T04:06:29.857Z,4.02
2019-05-05T04:07:29.857Z,4.04
2019-05-05T04:08:29.834Z,4.06
2019-05-05T04:09:29.860Z,4.07
2019-05-05T04:10:29.824Z,4.16
2019-05-05T04:11:29.869Z,4.02
2019-05-05T04:12:29.812Z,4.07
2019-05-05T04:13:29.850Z,4.17
2019-05-05T04:14:29.785Z,4.11
2019-05-05T04:15:29.775Z,4.13
2019-05-05T04:16:29.764Z,4.18
2019-05-05T04:17:29.757Z,4.20
2019-05-05T04:18:29.738Z,4.21
2019-05-05T04:19:29.718Z,4.21
2019-05-05T04:20:29.708Z,4.28
2019-05-05T04:21:33.752Z,4.28
2019-05-05T04:22:30.699Z,4.29
2019-05-05T04:23:29.677Z,4.32
2019-05-05T04:24:29.666Z,4.29
2019-05-05T04:25:29.657Z,4.24
2019-05-05T04:26:29.657Z,4.25
2019-05-05T04:27:29.652Z,4.32
2019-05-05T04:28:29.627Z,4.24
2019-05-05T04:29:29.644Z,4.29
2019-05-05T04:30:29.617Z,4.21
2019-05-05T04:31:29.636Z,4.26
2019-05-05T04:32:29.644Z,4.25
2019-05-05T04:33:29.578Z,4.29
2019-05-05T04:34:29.567Z,4.24
2019-05-05T04:35:29.565Z,4.25
2019-05-05T04:36:29.546Z,4.29
2019-05-05T04:37:29.554Z,4.28
2019-05-05T04:38:29.537Z,4.25
2019-05-05T04:39:29.520Z,4.24
2019-05-05T04:40:29.504Z,4.32
2019-05-05T04:41:29.498Z,4.31
2019-05-05T04:42:29.532Z,4.36
2019-05-05T04:43:29.482Z,4.36
2019-05-05T04:44:29.469Z,4.35
2019-05-05T04:45:29.469Z,4.34
2019-05-05T04:46:29.460Z,4.36
2019-05-05T04:47:29.519Z,4.35
2019-05-05T04:48:29.430Z,4.36
2019-05-05T04:49:29.443Z,4.36
2019-05-05T04:50:29.414Z,4.35
2019-05-05T04:51:29.388Z,4.35
2019-05-05T04:52:29.375Z,4.35
2019-05-05T04:53:29.389Z,4.32
2019-05-05T04:54:29.380Z,4.26
2019-05-05T04:55:29.365Z,4.34
2019-05-05T04:56:30.107Z,4.35
2019-05-05T04:57:29.355Z,4.25
2019-05-05T04:58:29.325Z,4.36
2019-05-05T04:59:29.313Z,4.35
2019-05-05T05:00:29.310Z,4.36
2019-05-05T05:01:29.280Z,4.36
2019-05-05T05:02:29.278Z,4.38
2019-05-05T05:03:29.269Z,4.36
2019-05-05T05:04:29.266Z,4.34
2019-05-05T05:05:29.239Z,4.42
2019-05-05T05:06:29.228Z,4.36
2019-05-05T05:07:29.223Z,4.43
2019-05-05T05:08:29.220Z,4.38
2019-05-05T05:09:29.207Z,4.38
2019-05-05T05:10:29.191Z,4.38
2019-05-05T05:11:29.218Z,4.39
2019-05-05T05:12:29.190Z,4.43
2019-05-05T05:13:29.164Z,4.50
2019-05-05T05:14:29.151Z,4.46
2019-05-05T05:15:29.136Z,4.43
2019-05-05T05:16:29.128Z,4.44
2019-05-05T05:17:29.122Z,4.47
2019-05-05T05:18:29.114Z,4.53
2019-05-05T05:19:29.139Z,4.64
2019-05-05T05:20:29.100Z,4.57
2019-05-05T05:21:29.072Z,4.62
2019-05-05T05:22:29.068Z,4.64
2019-05-05T05:23:29.761Z,4.59
2019-05-05T05:24:29.044Z,4.61
2019-05-05T05:25:29.033Z,4.65
2019-05-05T05:26:29.035Z,4.61
2019-05-05T05:27:29.008Z,4.62
2019-05-05T05:28:29.024Z,4.65
2019-05-05T05:29:28.997Z,4.61
2019-05-05T05:30:28.984Z,4.59
2019-05-05T05:31:28.971Z,4.59
2019-05-05T05:32:28.958Z,4.51
2019-05-05T05:33:28.966Z,4.56
2019-05-05T05:34:28.944Z,4.61
2019-05-05T05:35:28.941Z,4.56
2019-05-05T05:36:28.917Z,4.62
2019-05-05T05:37:28.921Z,4.59
2019-05-05T05:38:29.195Z,4.64
2019-05-05T05:39:28.898Z,4.61
2019-05-05T05:40:28.878Z,4.61
2019-05-05T05:41:28.901Z,4.62
2019-05-05T05:42:28.859Z,4.62
2019-05-05T05:43:28.875Z,4.59
2019-05-05T05:44:28.857Z,4.64
2019-05-05T05:45:28.846Z,4.64
2019-05-05T05:46:28.831Z,4.64
2019-05-05T05:47:28.838Z,4.57
2019-05-05T05:48:28.800Z,4.64
2019-05-05T05:49:28.800Z,4.67
2019-05-05T05:50:28.770Z,4.61
2019-05-05T05:51:28.771Z,4.71
2019-05-05T05:52:28.750Z,4.64
2019-05-05T05:53:28.737Z,4.67
2019-05-05T05:54:28.790Z,4.62
2019-05-05T05:55:28.717Z,4.72
2019-05-05T05:56:28.750Z,4.79
2019-05-05T05:57:28.704Z,4.77
2019-05-05T05:58:28.686Z,4.77
2019-05-05T05:59:28.701Z,4.72
2019-05-05T06:00:28.664Z,4.72
2019-05-05T06:01:28.654Z,4.86
2019-05-05T06:02:28.646Z,4.79
2019-05-05T06:03:28.638Z,4.77
2019-05-05T06:04:28.651Z,4.83
2019-05-05T06:05:28.636Z,4.86
2019-05-05T06:06:28.629Z,4.87
2019-05-05T06:07:28.621Z,4.90
2019-05-05T06:08:30.046Z,4.77
2019-05-05T06:09:28.608Z,4.83
2019-05-05T06:10:28.568Z,4.87
2019-05-05T06:11:28.555Z,4.88
2019-05-05T06:12:28.547Z,4.96
2019-05-05T06:13:28.557Z,4.88
2019-05-05T06:14:28.552Z,4.96
2019-05-05T06:15:28.537Z,5.02
2019-05-05T06:16:28.497Z,5.01
2019-05-05T06:17:28.494Z,5.06
2019-05-05T06:18:28.499Z,5.05
2019-05-05T06:19:28.502Z,5.15
2019-05-05T06:20:28.475Z,5.04
2019-05-05T06:21:28.492Z,5.20
2019-05-05T06:22:31.466Z,5.11
2019-05-05T06:23:28.454Z,5.19
2019-05-05T06:24:28.432Z,5.23
2019-05-05T06:25:28.480Z,5.14
2019-05-05T06:26:28.398Z,5.08
2019-05-05T06:27:28.398Z,5.12
2019-05-05T06:28:28.387Z,5.12
2019-05-05T06:29:28.376Z,5.20
2019-05-05T06:30:28.352Z,5.20
2019-05-05T06:31:28.342Z,5.19
2019-05-05T06:32:28.346Z,5.19
2019-05-05T06:33:28.351Z,5.08
2019-05-05T06:34:28.338Z,5.09
2019-05-05T06:35:28.305Z,5.19
2019-05-05T06:36:28.298Z,5.17
2019-05-05T06:37:28.326Z,5.19
2019-05-05T06:39:00.137Z,5.14
2019-05-05T06:39:28.256Z,5.29
2019-05-05T06:40:28.259Z,5.24
2019-05-05T06:41:28.247Z,5.29
2019-05-05T06:42:28.236Z,5.33
2019-05-05T06:43:28.222Z,5.37
2019-05-05T06:44:28.206Z,5.35
2019-05-05T06:45:28.207Z,5.32
2019-05-05T06:46:28.214Z,5.45
2019-05-05T06:47:28.213Z,5.41
2019-05-05T06:48:28.174Z,5.49
2019-05-05T06:49:31.068Z,5.60
2019-05-05T06:50:28.182Z,5.58
2019-05-05T06:51:28.135Z,5.58
2019-05-05T06:52:41.350Z,5.63
2019-05-05T06:53:29.110Z,5.69
2019-05-05T06:54:28.137Z,5.77
2019-05-05T06:55:28.115Z,5.75
2019-05-05T06:56:28.088Z,5.81
2019-05-05T06:57:28.084Z,5.84
2019-05-05T06:58:28.067Z,5.85
2019-05-05T06:59:28.049Z,5.88
2019-05-05T07:00:28.070Z,5.98
2019-05-05T07:01:28.061Z,5.81
2019-05-05T07:02:28.031Z,6.08
2019-05-05T07:03:28.009Z,6.08
2019-05-05T07:04:28.001Z,6.06
2019-05-05T07:05:28.006Z,6.02
2019-05-05T07:06:27.976Z,6.11
2019-05-05T07:07:27.964Z,6.08
2019-05-05T07:08:27.966Z,6.08
2019-05-05T07:09:27.950Z,6.14
2019-05-05T07:10:27.944Z,6.17
2019-05-05T07:11:27.935Z,6.14
2019-05-05T07:12:27.912Z,6.11
2019-05-05T07:13:27.901Z,6.14
2019-05-05T07:14:27.921Z,6.11
2019-05-05T07:15:27.925Z,6.24
2019-05-05T07:16:27.882Z,6.13
2019-05-05T07:17:27.887Z,6.19
2019-05-05T07:18:27.857Z,6.16
2019-05-05T07:19:27.838Z,6.19
2019-05-05T07:20:27.905Z,6.24
2019-05-05T07:21:27.817Z,6.17
2019-05-05T07:22:27.807Z,6.25
2019-05-05T07:23:27.798Z,6.36
2019-05-05T07:24:27.786Z,6.45
2019-05-05T07:25:39.881Z,6.50
2019-05-05T07:26:28.777Z,6.50
2019-05-05T07:27:27.756Z,6.42
2019-05-05T07:28:27.754Z,6.54
2019-05-05T07:29:27.755Z,6.61
2019-05-05T07:30:27.750Z,6.61
2019-05-05T07:31:27.717Z,6.69
2019-05-05T07:32:27.711Z,6.71
2019-05-05T07:33:27.696Z,6.76
2019-05-05T07:34:27.703Z,6.72
2019-05-05T07:35:27.691Z,6.86
2019-05-05T07:36:27.662Z,6.89
2019-05-05T07:37:27.664Z,6.87
2019-05-05T07:38:27.644Z,6.87
2019-05-05T07:39:27.633Z,6.93
2019-05-05T07:40:27.657Z,6.99
2019-05-05T07:41:27.612Z,7.01
2019-05-05T07:42:27.598Z,7.12
2019-05-05T07:43:27.587Z,7.16
2019-05-05T07:44:29.745Z,7.26
2019-05-05T07:45:27.615Z,7.32
2019-05-05T07:46:27.572Z,7.32
2019-05-05T07:47:27.566Z,7.37
2019-05-05T07:48:27.591Z,7.36
2019-05-05T07:49:27.529Z,7.34
2019-05-05T07:50:32.244Z,7.34
2019-05-05T07:51:29.155Z,7.30
2019-05-05T07:52:27.494Z,7.18
2019-05-05T07:53:27.487Z,7.24
2019-05-05T07:54:27.477Z,7.09
2019-05-05T07:55:27.464Z,7.24
2019-05-05T07:56:27.527Z,7.24
2019-05-05T07:57:27.451Z,7.37
2019-05-05T07:58:27.431Z,7.37
2019-05-05T07:59:27.435Z,7.44
2019-05-05T08:00:27.426Z,7.36
2019-05-05T08:01:27.447Z,7.37
2019-05-05T08:02:27.403Z,7.45
2019-05-05T08:03:27.379Z,7.48
2019-05-05T08:04:27.429Z,7.52
2019-05-05T08:05:27.401Z,7.57
2019-05-05T08:06:27.367Z,7.54
2019-05-05T08:07:27.345Z,7.69
2019-05-05T08:08:27.350Z,7.69
2019-05-05T08:09:27.317Z,7.77
2019-05-05T08:10:27.309Z,7.94
2019-05-05T08:11:27.335Z,8.03
2019-05-05T08:12:27.300Z,8.14
2019-05-05T08:13:27.294Z,8.10
2019-05-05T08:14:27.266Z,8.13
2019-05-05T08:15:27.254Z,8.20
2019-05-05T08:16:27.261Z,8.31
2019-05-05T08:17:27.231Z,8.43
2019-05-05T08:18:27.324Z,8.46
2019-05-05T08:19:27.224Z,8.54
2019-05-05T08:20:27.199Z,8.36
2019-05-05T08:21:27.201Z,8.27
2019-05-05T08:22:27.197Z,8.36
2019-05-05T08:23:32.310Z,8.27
2019-05-05T08:24:28.157Z,8.34
2019-05-05T08:25:36.356Z,8.43
2019-05-05T08:26:28.151Z,8.45
2019-05-05T08:27:27.136Z,8.46
2019-05-05T08:28:27.143Z,8.36
2019-05-05T08:29:27.118Z,8.46
2019-05-05T08:30:27.093Z,8.34
2019-05-05T08:31:27.093Z,8.29
2019-05-05T08:32:27.078Z,8.32
2019-05-05T08:33:27.059Z,8.39
2019-05-05T08:34:27.061Z,8.31
2019-05-05T08:35:27.041Z,8.45
2019-05-05T08:36:27.038Z,8.39
2019-05-05T08:37:27.016Z,8.63
2019-05-05T08:38:27.006Z,8.67
2019-05-05T08:39:26.998Z,8.68
2019-05-05T08:40:26.984Z,8.79
2019-05-05T08:41:26.986Z,8.68
2019-05-05T08:42:26.972Z,8.89
2019-05-05T08:43:26.952Z,8.93
2019-05-05T08:44:26.942Z,8.97
2019-05-05T08:45:26.932Z,9.01
2019-05-05T08:46:26.954Z,9.16
2019-05-05T08:47:28.335Z,9.15
2019-05-05T08:48:26.925Z,9.12
2019-05-05T08:49:26.888Z,9.26
2019-05-05T08:50:27.255Z,9.31
2019-05-05T08:51:26.900Z,9.34
2019-05-05T08:52:26.888Z,9.38
2019-05-05T08:53:41.175Z,9.41
2019-05-05T08:54:27.852Z,9.53
2019-05-05T08:55:28.476Z,9.44
2019-05-05T08:56:26.820Z,9.62
2019-05-05T08:57:26.828Z,9.60
2019-05-05T08:58:26.853Z,9.63
2019-05-05T08:59:26.790Z,9.73
2019-05-05T09:00:26.838Z,9.73
2019-05-05T09:01:26.761Z,9.77
2019-05-05T09:02:26.774Z,9.80
2019-05-05T09:03:26.753Z,9.89
2019-05-05T09:04:26.742Z,9.91
2019-05-05T09:05:26.721Z,9.93
2019-05-05T09:06:26.744Z,9.96
2019-05-05T09:07:26.718Z,10.01
2019-05-05T09:08:26.691Z,10.06
2019-05-05T09:09:26.682Z,10.10
2019-05-05T09:10:26.675Z,10.22
2019-05-05T09:11:26.718Z,10.31
2019-05-05T09:12:26.666Z,10.49
2019-05-05T09:13:26.643Z,10.49
2019-05-05T09:14:26.649Z,10.66
2019-05-05T09:15:26.620Z,10.75
2019-05-05T09:16:26.604Z,10.81
2019-05-05T09:17:28.091Z,10.88
2019-05-05T09:18:26.581Z,10.87
2019-05-05T09:19:26.884Z,10.95
2019-05-05T09:20:26.566Z,11.05
2019-05-05T09:21:26.570Z,11.26
2019-05-05T09:22:26.639Z,11.19
2019-05-05T09:23:26.689Z,11.31
2019-05-05T09:24:26.747Z,11.30
2019-05-05T09:25:26.513Z,11.36
2019-05-05T09:26:26.502Z,11.44
2019-05-05T09:27:28.288Z,11.45
2019-05-05T09:28:26.490Z,11.57
2019-05-05T09:29:26.463Z,11.60
2019-05-05T09:30:26.456Z,11.69
2019-05-05T09:31:26.444Z,11.69
2019-05-05T09:32:26.454Z,11.69
2019-05-05T09:33:26.422Z,11.84
2019-05-05T09:34:26.410Z,11.87
2019-05-05T09:35:26.586Z,11.85
2019-05-05T09:36:26.394Z,11.78
2019-05-05T09:37:26.392Z,11.93
2019-05-05T09:38:26.399Z,11.93
2019-05-05T09:39:26.381Z,12.03
2019-05-05T09:40:26.349Z,12.18
2019-05-05T09:41:26.336Z,12.15
2019-05-05T09:42:26.337Z,12.19
2019-05-05T09:43:26.331Z,12.33
2019-05-05T09:44:26.310Z,12.37
2019-05-05T09:45:26.294Z,12.49
2019-05-05T09:46:26.284Z,12.38
2019-05-05T09:47:26.302Z,12.40
2019-05-05T09:48:26.294Z,12.31
2019-05-05T09:49:26.254Z,12.18
2019-05-05T09:50:26.246Z,11.98
2019-05-05T09:51:26.233Z,11.90
2019-05-05T09:52:26.240Z,11.85
2019-05-05T09:53:27.407Z,11.69
2019-05-05T09:54:26.198Z,11.59
2019-05-05T09:55:26.199Z,11.45
2019-05-05T09:56:26.189Z,11.41
2019-05-05T09:57:26.182Z,11.38
2019-05-05T09:58:26.185Z,11.26
2019-05-05T09:59:26.145Z,11.31
2019-05-05T10:00:26.135Z,11.24
2019-05-05T10:01:26.125Z,11.26
2019-05-05T10:02:26.187Z,11.20
2019-05-05T10:03:26.103Z,11.20
2019-05-05T10:04:26.091Z,11.21
2019-05-05T10:05:26.082Z,11.26
2019-05-05T10:06:26.071Z,11.28
2019-05-05T10:07:26.100Z,11.21
2019-05-05T10:08:26.066Z,11.30
2019-05-05T10:09:26.041Z,11.28
2019-05-05T10:10:26.032Z,11.17
2019-05-05T10:11:26.018Z,11.28
2019-05-05T10:12:26.082Z,11.30
2019-05-05T10:13:26.074Z,11.28
2019-05-05T10:14:25.987Z,11.17
2019-05-05T10:15:25.980Z,11.12
2019-05-05T10:16:25.973Z,11.21
2019-05-05T10:17:25.958Z,11.28
2019-05-05T10:18:26.124Z,11.36
2019-05-05T10:19:25.934Z,11.54
2019-05-05T10:20:25.923Z,11.70
2019-05-05T10:21:25.912Z,11.74
2019-05-05T10:22:25.903Z,11.88
2019-05-05T10:23:25.895Z,12.04
2019-05-05T10:24:30.729Z,12.19
2019-05-05T10:25:26.873Z,12.31
2019-05-05T10:26:25.874Z,12.41
2019-05-05T10:27:25.869Z,12.49
2019-05-05T10:28:25.854Z,12.56
2019-05-05T10:29:25.853Z,12.59
2019-05-05T10:30:25.831Z,12.77
2019-05-05T10:31:25.809Z,12.73
2019-05-05T10:32:25.811Z,12.71
2019-05-05T10:33:25.788Z,12.63
2019-05-05T10:34:25.823Z,12.44
2019-05-05T10:35:25.787Z,12.54
2019-05-05T10:36:25.753Z,12.41
2019-05-05T10:37:25.756Z,12.37
2019-05-05T10:38:25.737Z,12.34
2019-05-05T10:39:25.739Z,12.33
2019-05-05T10:40:25.721Z,12.34
2019-05-05T10:41:25.701Z,12.36
2019-05-05T10:42:25.696Z,12.29
2019-05-05T10:43:25.686Z,12.16
2019-05-05T10:44:25.697Z,12.15
2019-05-05T10:45:25.664Z,12.05
2019-05-05T10:46:25.647Z,12.05
2019-05-05T10:47:25.664Z,11.96
2019-05-05T10:48:25.642Z,11.85
2019-05-05T10:49:25.615Z,11.90
2019-05-05T10:50:25.604Z,11.84
2019-05-05T10:51:25.595Z,11.72
2019-05-05T10:52:25.583Z,11.74
2019-05-05T10:53:25.585Z,11.77
2019-05-05T10:54:25.570Z,11.82
2019-05-05T10:55:25.554Z,11.66
2019-05-05T10:56:25.540Z,11.59
2019-05-05T10:57:25.531Z,11.57
2019-05-05T10:58:25.534Z,11.53
2019-05-05T10:59:25.509Z,11.56
2019-05-05T11:00:25.500Z,11.45
2019-05-05T11:01:25.517Z,11.46
2019-05-05T11:02:25.488Z,11.33
2019-05-05T11:03:25.479Z,11.20
2019-05-05T11:04:25.456Z,11.16
2019-05-05T11:05:25.446Z,11.11
2019-05-05T11:06:25.435Z,11.08
2019-05-05T11:07:25.434Z,11.03
2019-05-05T11:08:25.415Z,11.06
2019-05-05T11:09:25.416Z,11.09
2019-05-05T11:10:25.396Z,11.02
2019-05-05T11:11:25.388Z,11.02
2019-05-05T11:12:25.393Z,10.98
2019-05-05T11:13:25.394Z,10.98
2019-05-05T11:14:25.393Z,10.90
2019-05-05T11:15:25.340Z,10.83
2019-05-05T11:16:25.333Z,10.98
2019-05-05T11:17:25.339Z,10.91
2019-05-05T11:18:25.308Z,11.02
2019-05-05T11:19:25.316Z,11.11
2019-05-05T11:20:25.291Z,11.17
2019-05-05T11:21:25.284Z,11.17
2019-05-05T11:22:25.268Z,11.44
2019-05-05T11:23:25.256Z,11.60
2019-05-05T11:24:25.261Z,11.75
2019-05-05T11:25:25.252Z,11.90
2019-05-05T11:26:25.227Z,12.12
2019-05-05T11:27:25.211Z,12.49
2019-05-05T11:28:25.202Z,12.67
2019-05-05T11:29:25.204Z,12.69
2019-05-05T11:30:26.891Z,12.81
2019-05-05T11:31:25.173Z,13.07
2019-05-05T11:32:25.159Z,13.36
2019-05-05T11:33:25.150Z,13.48
2019-05-05T11:34:25.155Z,13.66
2019-05-05T11:35:25.128Z,13.75
2019-05-05T11:36:25.131Z,13.63
2019-05-05T11:37:25.113Z,13.55
2019-05-05T11:38:25.095Z,13.41
2019-05-05T11:39:25.097Z,13.54
2019-05-05T11:40:25.073Z,13.50
2019-05-05T11:41:25.178Z,13.61
2019-05-05T11:42:25.063Z,13.46
2019-05-05T11:43:25.043Z,13.44
2019-05-05T11:44:25.041Z,13.38
2019-05-05T11:45:25.019Z,13.21
2019-05-05T11:46:25.017Z,13.14
2019-05-05T11:47:25.003Z,13.12
2019-05-05T11:48:25.000Z,12.99
2019-05-05T11:49:25.004Z,12.92
2019-05-05T11:50:24.967Z,12.96
2019-05-05T11:51:25.137Z,12.84
2019-05-05T11:52:24.949Z,12.76
2019-05-05T11:53:25.260Z,12.77
2019-05-05T11:54:24.941Z,12.59
2019-05-05T11:55:24.947Z,12.59
2019-05-05T11:56:24.909Z,12.63
2019-05-05T11:57:24.896Z,12.61
2019-05-05T11:58:25.071Z,12.44
2019-05-05T11:59:24.886Z,12.46
2019-05-05T12:00:24.870Z,12.54
2019-05-05T12:01:24.856Z,12.51
2019-05-05T12:02:25.013Z,12.44
2019-05-05T12:03:24.849Z,12.34
2019-05-05T12:04:24.836Z,12.34
2019-05-05T12:05:24.814Z,12.36
2019-05-05T12:06:24.800Z,12.40
2019-05-05T12:07:24.788Z,12.41
2019-05-05T12:08:24.776Z,12.34
2019-05-05T12:09:24.972Z,12.37
2019-05-05T12:10:24.758Z,12.29
2019-05-05T12:11:24.744Z,12.22
2019-05-05T12:12:24.748Z,12.12
2019-05-05T12:13:24.722Z,12.13
2019-05-05T12:14:27.061Z,12.11
2019-05-05T12:15:24.701Z,12.18
2019-05-05T12:16:24.691Z,12.13
2019-05-05T12:17:24.681Z,12.21
2019-05-05T12:18:24.676Z,12.16
2019-05-05T12:19:24.670Z,12.19
2019-05-05T12:20:24.657Z,12.29
2019-05-05T12:21:24.646Z,12.33
2019-05-05T12:22:24.627Z,12.46
2019-05-05T12:23:24.623Z,12.46
2019-05-05T12:24:24.858Z,12.63
2019-05-05T12:25:28.248Z,12.63
2019-05-05T12:26:24.586Z,12.69
2019-05-05T12:27:24.709Z,12.73
2019-05-05T12:28:24.570Z,12.85
2019-05-05T12:29:24.687Z,12.77
2019-05-05T12:30:24.565Z,12.77
2019-05-05T12:31:24.828Z,12.84
2019-05-05T12:32:24.519Z,12.87
2019-05-05T12:33:24.513Z,13.09
2019-05-05T12:34:24.542Z,13.14
2019-05-05T12:35:24.489Z,13.35
2019-05-05T12:36:24.493Z,13.44
2019-05-05T12:37:24.469Z,13.61
2019-05-05T12:38:24.465Z,13.63
2019-05-05T12:39:24.480Z,13.66
2019-05-05T12:40:24.684Z,13.80
2019-05-05T12:41:24.425Z,13.91
2019-05-05T12:42:24.427Z,14.02
2019-05-05T12:43:24.737Z,14.05
2019-05-05T12:44:24.396Z,14.08
2019-05-05T12:45:24.407Z,14.09
2019-05-05T12:46:24.396Z,14.13
2019-05-05T12:47:24.383Z,14.19
2019-05-05T12:48:24.357Z,14.26
2019-05-05T12:49:25.430Z,14.45
2019-05-05T12:50:24.673Z,15.43
2019-05-05T12:51:24.318Z,15.91
2019-05-05T12:52:24.308Z,18.16
2019-05-05T12:53:24.301Z,18.02
2019-05-05T12:54:24.618Z,18.02
2019-05-05T12:55:38.325Z,19.23
2019-05-05T12:56:25.265Z,20.37
2019-05-05T12:57:24.255Z,20.90
2019-05-05T12:58:24.245Z,21.55
2019-05-05T12:59:24.883Z,21.74
2019-05-05T13:00:24.250Z,22.39
2019-05-05T13:01:24.667Z,23.52
2019-05-05T13:02:24.202Z,24.92
2019-05-05T13:03:24.190Z,26.12
2019-05-05T13:04:24.669Z,28.38
2019-05-05T13:05:24.191Z,29.10
2019-05-05T13:06:24.161Z,28.82
2019-05-05T13:07:24.368Z,30.04
2019-05-05T13:08:24.140Z,31.46
2019-05-05T13:09:24.497Z,32.72
2019-05-05T13:10:24.434Z,33.74